sensor_id;sensor_type;location;lat;lon;timestamp;temperature;humidity
46438;DHT22;32137;48.728;9.142;2023-12-20T00:00:59;5.30;99.90
46438;DHT22;32137;48.728;9.142;2023-12-20T00:03:25;5.30;99.90
46438;DHT22;32137;48.728;9.142;2023-12-20T00:05:50;5.20;99.90
46438;DHT22;32137;48.728;9.142;2023-12-20T00:08:16;5.30;99.90
46438;DHT22;32137;48.728;9.142;2023-12-20T00:10:42;5.30;99.90
46438;DHT22;32137;48.728;9.142;2023-12-20T00:13:08;5.30;99.90
46438;DHT22;32137;48.728;9.142;2023-12-20T00:15:34;5.40;99.90
46438;DHT22;32137;48.728;9.142;2023-12-20T00:17:59;5.30;99.90
46438;DHT22;32137;48.728;9.142;2023-12-20T00:20:26;5.30;99.90
46438;DHT22;32137;48.728;9.142;2023-12-20T00:22:51;5.30;99.90
46438;DHT22;32137;48.728;9.142;2023-12-20T00:25:17;5.30;99.90
46438;DHT22;32137;48.728;9.142;2023-12-20T00:27:43;5.30;99.90
46438;DHT22;32137;48.728;9.142;2023-12-20T00:30:08;5.20;99.90
46438;DHT22;32137;48.728;9.142;2023-12-20T00:32:34;5.20;99.90
46438;DHT22;32137;48.728;9.142;2023-12-20T00:35:00;5.10;99.90
46438;DHT22;32137;48.728;9.142;2023-12-20T00:37:26;5.10;99.90
46438;DHT22;32137;48.728;9.142;2023-12-20T00:39:51;5.10;99.90
46438;DHT22;32137;48.728;9.142;2023-12-20T00:42:17;5.30;99.90
46438;DHT22;32137;48.728;9.142;2023-12-20T00:44:42;5.30;99.90
46438;DHT22;32137;48.728;9.142;2023-12-20T00:47:08;5.40;99.90
46438;DHT22;32137;48.728;9.142;2023-12-20T00:49:33;5.40;99.90
46438;DHT22;32137;48.728;9.142;2023-12-20T00:51:58;5.60;99.90
46438;DHT22;32137;48.728;9.142;2023-12-20T00:54:24;5.60;99.90
46438;DHT22;32137;48.728;9.142;2023-12-20T00:56:49;5.70;99.90
46438;DHT22;32137;48.728;9.142;2023-12-20T00:59:16;5.60;99.90
46438;DHT22;32137;48.728;9.142;2023-12-20T01:01:41;6.10;99.90
46438;DHT22;32137;48.728;9.142;2023-12-20T01:04:07;5.80;99.90
46438;DHT22;32137;48.728;9.142;2023-12-20T01:06:33;6.20;99.90
46438;DHT22;32137;48.728;9.142;2023-12-20T01:08:58;6.00;99.90
46438;DHT22;32137;48.728;9.142;2023-12-20T01:11:23;6.50;99.90
46438;DHT22;32137;48.728;9.142;2023-12-20T01:13:49;7.00;99.90
46438;DHT22;32137;48.728;9.142;2023-12-20T01:16:14;7.10;99.90
46438;DHT22;32137;48.728;9.142;2023-12-20T01:18:40;7.40;99.90
46438;DHT22;32137;48.728;9.142;2023-12-20T01:21:05;7.50;99.90
46438;DHT22;32137;48.728;9.142;2023-12-20T01:23:31;7.40;99.90
46438;DHT22;32137;48.728;9.142;2023-12-20T01:25:57;7.40;99.90
46438;DHT22;32137;48.728;9.142;2023-12-20T01:28:25;7.60;99.90
46438;DHT22;32137;48.728;9.142;2023-12-20T01:30:50;7.60;99.90
46438;DHT22;32137;48.728;9.142;2023-12-20T01:33:16;7.30;99.90
46438;DHT22;32137;48.728;9.142;2023-12-20T01:35:41;7.40;99.90
46438;DHT22;32137;48.728;9.142;2023-12-20T01:38:07;7.80;99.90
46438;DHT22;32137;48.728;9.142;2023-12-20T01:40:32;7.80;99.90
46438;DHT22;32137;48.728;9.142;2023-12-20T01:43:01;7.50;99.90
46438;DHT22;32137;48.728;9.142;2023-12-20T01:45:27;7.80;99.90
46438;DHT22;32137;48.728;9.142;2023-12-20T01:47:53;7.60;99.90
46438;DHT22;32137;48.728;9.142;2023-12-20T01:50:18;7.60;99.90
46438;DHT22;32137;48.728;9.142;2023-12-20T01:52:44;7.20;99.90
46438;DHT22;32137;48.728;9.142;2023-12-20T01:55:10;7.60;99.90
46438;DHT22;32137;48.728;9.142;2023-12-20T01:57:43;7.60;99.90
46438;DHT22;32137;48.728;9.142;2023-12-20T02:00:10;7.20;99.90
46438;DHT22;32137;48.728;9.142;2023-12-20T02:02:37;7.60;99.90
46438;DHT22;32137;48.728;9.142;2023-12-20T02:05:04;7.20;99.90
46438;DHT22;32137;48.728;9.142;2023-12-20T02:07:30;7.50;99.90
46438;DHT22;32137;48.728;9.142;2023-12-20T02:09:56;7.00;99.90
46438;DHT22;32137;48.728;9.142;2023-12-20T02:12:21;7.20;99.90
46438;DHT22;32137;48.728;9.142;2023-12-20T02:14:47;7.00;99.90
46438;DHT22;32137;48.728;9.142;2023-12-20T02:17:13;7.20;99.90
46438;DHT22;32137;48.728;9.142;2023-12-20T02:19:38;6.90;99.90
46438;DHT22;32137;48.728;9.142;2023-12-20T02:22:13;7.10;99.90
46438;DHT22;32137;48.728;9.142;2023-12-20T02:24:38;7.10;99.90
46438;DHT22;32137;48.728;9.142;2023-12-20T02:27:05;7.30;99.90
46438;DHT22;32137;48.728;9.142;2023-12-20T02:29:31;7.10;99.90
46438;DHT22;32137;48.728;9.142;2023-12-20T02:31:57;7.20;99.90
46438;DHT22;32137;48.728;9.142;2023-12-20T02:34:22;7.00;99.90
46438;DHT22;32137;48.728;9.142;2023-12-20T02:36:50;7.40;99.90
46438;DHT22;32137;48.728;9.142;2023-12-20T02:39:16;7.10;99.90
46438;DHT22;32137;48.728;9.142;2023-12-20T02:41:41;7.30;99.90
46438;DHT22;32137;48.728;9.142;2023-12-20T02:44:07;7.10;99.90
46438;DHT22;32137;48.728;9.142;2023-12-20T02:46:32;6.90;99.90
46438;DHT22;32137;48.728;9.142;2023-12-20T02:48:58;6.90;99.90
46438;DHT22;32137;48.728;9.142;2023-12-20T02:51:23;6.90;99.90
46438;DHT22;32137;48.728;9.142;2023-12-20T02:53:49;6.90;99.90
46438;DHT22;32137;48.728;9.142;2023-12-20T02:56:14;6.90;99.90
46438;DHT22;32137;48.728;9.142;2023-12-20T02:58:40;7.30;99.90
46438;DHT22;32137;48.728;9.142;2023-12-20T03:01:05;6.90;99.90
46438;DHT22;32137;48.728;9.142;2023-12-20T03:03:31;7.30;99.90
46438;DHT22;32137;48.728;9.142;2023-12-20T03:05:56;7.20;99.90
46438;DHT22;32137;48.728;9.142;2023-12-20T03:08:22;7.30;99.90
46438;DHT22;32137;48.728;9.142;2023-12-20T03:10:47;6.90;99.90
46438;DHT22;32137;48.728;9.142;2023-12-20T03:13:13;7.00;99.90
46438;DHT22;32137;48.728;9.142;2023-12-20T03:15:38;7.30;99.90
46438;DHT22;32137;48.728;9.142;2023-12-20T03:18:04;6.90;99.90
46438;DHT22;32137;48.728;9.142;2023-12-20T03:20:29;6.80;99.90
46438;DHT22;32137;48.728;9.142;2023-12-20T03:22:59;7.20;99.90
46438;DHT22;32137;48.728;9.142;2023-12-20T03:25:25;7.10;99.90
46438;DHT22;32137;48.728;9.142;2023-12-20T03:27:50;7.20;99.90
46438;DHT22;32137;48.728;9.142;2023-12-20T03:30:16;7.30;99.90
46438;DHT22;32137;48.728;9.142;2023-12-20T03:32:41;6.90;99.90
46438;DHT22;32137;48.728;9.142;2023-12-20T03:35:07;6.90;99.90
46438;DHT22;32137;48.728;9.142;2023-12-20T03:37:32;6.80;99.90
46438;DHT22;32137;48.728;9.142;2023-12-20T03:39:58;6.80;99.90
46438;DHT22;32137;48.728;9.142;2023-12-20T03:42:23;6.90;99.90
46438;DHT22;32137;48.728;9.142;2023-12-20T03:44:49;7.30;99.90
46438;DHT22;32137;48.728;9.142;2023-12-20T03:47:14;7.00;99.90
46438;DHT22;32137;48.728;9.142;2023-12-20T03:49:40;6.90;99.90
46438;DHT22;32137;48.728;9.142;2023-12-20T03:52:05;6.80;99.90
46438;DHT22;32137;48.728;9.142;2023-12-20T03:54:31;7.20;99.90
46438;DHT22;32137;48.728;9.142;2023-12-20T03:56:56;7.20;99.90
46438;DHT22;32137;48.728;9.142;2023-12-20T03:59:21;6.80;99.90
46438;DHT22;32137;48.728;9.142;2023-12-20T04:01:47;6.70;99.90
46438;DHT22;32137;48.728;9.142;2023-12-20T04:04:13;6.70;99.90
46438;DHT22;32137;48.728;9.142;2023-12-20T04:06:38;7.20;99.90
46438;DHT22;32137;48.728;9.142;2023-12-20T04:09:04;7.20;99.90
46438;DHT22;32137;48.728;9.142;2023-12-20T04:11:29;6.80;99.90
46438;DHT22;32137;48.728;9.142;2023-12-20T04:13:55;7.00;99.90
46438;DHT22;32137;48.728;9.142;2023-12-20T04:16:21;6.60;99.90
46438;DHT22;32137;48.728;9.142;2023-12-20T04:18:46;6.50;99.90
46438;DHT22;32137;48.728;9.142;2023-12-20T04:21:12;7.00;99.90
46438;DHT22;32137;48.728;9.142;2023-12-20T04:23:37;6.50;99.90
46438;DHT22;32137;48.728;9.142;2023-12-20T04:26:02;6.60;99.90
46438;DHT22;32137;48.728;9.142;2023-12-20T04:28:28;6.70;99.90
46438;DHT22;32137;48.728;9.142;2023-12-20T04:30:55;7.00;99.90
46438;DHT22;32137;48.728;9.142;2023-12-20T04:33:21;6.70;99.90
46438;DHT22;32137;48.728;9.142;2023-12-20T04:35:47;6.50;99.90
46438;DHT22;32137;48.728;9.142;2023-12-20T04:38:12;6.50;99.90
46438;DHT22;32137;48.728;9.142;2023-12-20T04:40:38;6.60;99.90
46438;DHT22;32137;48.728;9.142;2023-12-20T04:43:05;6.40;99.90
46438;DHT22;32137;48.728;9.142;2023-12-20T04:45:31;6.50;99.90
46438;DHT22;32137;48.728;9.142;2023-12-20T04:47:56;6.90;99.90
46438;DHT22;32137;48.728;9.142;2023-12-20T04:50:22;6.60;99.90
46438;DHT22;32137;48.728;9.142;2023-12-20T04:52:47;6.70;99.90
46438;DHT22;32137;48.728;9.142;2023-12-20T04:55:13;6.50;99.90
46438;DHT22;32137;48.728;9.142;2023-12-20T04:57:39;6.90;99.90
46438;DHT22;32137;48.728;9.142;2023-12-20T05:00:04;6.90;99.90
46438;DHT22;32137;48.728;9.142;2023-12-20T05:02:30;6.90;99.90
46438;DHT22;32137;48.728;9.142;2023-12-20T05:04:55;7.00;99.90
46438;DHT22;32137;48.728;9.142;2023-12-20T05:07:21;6.70;99.90
46438;DHT22;32137;48.728;9.142;2023-12-20T05:09:46;6.50;99.90
46438;DHT22;32137;48.728;9.142;2023-12-20T05:12:12;6.40;99.90
46438;DHT22;32137;48.728;9.142;2023-12-20T05:14:37;6.40;99.90
46438;DHT22;32137;48.728;9.142;2023-12-20T05:17:03;6.40;99.90
46438;DHT22;32137;48.728;9.142;2023-12-20T05:19:28;6.70;99.90
46438;DHT22;32137;48.728;9.142;2023-12-20T05:21:54;6.90;99.90
46438;DHT22;32137;48.728;9.142;2023-12-20T05:24:19;6.80;99.90
46438;DHT22;32137;48.728;9.142;2023-12-20T05:26:45;6.40;99.90
46438;DHT22;32137;48.728;9.142;2023-12-20T05:29:10;6.50;99.90
46438;DHT22;32137;48.728;9.142;2023-12-20T05:31:36;6.90;99.90
46438;DHT22;32137;48.728;9.142;2023-12-20T05:34:01;6.50;99.90
46438;DHT22;32137;48.728;9.142;2023-12-20T05:36:27;6.30;99.90
46438;DHT22;32137;48.728;9.142;2023-12-20T05:38:53;6.80;99.90
46438;DHT22;32137;48.728;9.142;2023-12-20T05:41:19;6.80;99.90
46438;DHT22;32137;48.728;9.142;2023-12-20T05:43:44;6.30;99.90
46438;DHT22;32137;48.728;9.142;2023-12-20T05:46:10;6.30;99.90
46438;DHT22;32137;48.728;9.142;2023-12-20T05:48:36;6.30;99.90
46438;DHT22;32137;48.728;9.142;2023-12-20T05:51:01;6.30;99.90
46438;DHT22;32137;48.728;9.142;2023-12-20T05:53:27;6.70;99.90
46438;DHT22;32137;48.728;9.142;2023-12-20T05:55:52;6.70;99.90
46438;DHT22;32137;48.728;9.142;2023-12-20T05:58:18;6.80;99.90
46438;DHT22;32137;48.728;9.142;2023-12-20T06:00:43;6.80;99.90
46438;DHT22;32137;48.728;9.142;2023-12-20T06:03:09;6.80;99.90
46438;DHT22;32137;48.728;9.142;2023-12-20T06:05:34;6.90;99.90
46438;DHT22;32137;48.728;9.142;2023-12-20T06:08:00;6.90;99.90
46438;DHT22;32137;48.728;9.142;2023-12-20T06:10:28;6.80;99.90
46438;DHT22;32137;48.728;9.142;2023-12-20T06:12:54;6.40;99.90
46438;DHT22;32137;48.728;9.142;2023-12-20T06:15:19;6.90;99.90
46438;DHT22;32137;48.728;9.142;2023-12-20T06:17:45;6.80;99.90
46438;DHT22;32137;48.728;9.142;2023-12-20T06:20:12;6.40;99.90
46438;DHT22;32137;48.728;9.142;2023-12-20T06:22:38;6.80;99.90
46438;DHT22;32137;48.728;9.142;2023-12-20T06:25:04;6.80;99.90
46438;DHT22;32137;48.728;9.142;2023-12-20T06:27:29;6.80;99.90
46438;DHT22;32137;48.728;9.142;2023-12-20T06:29:55;6.80;99.90
46438;DHT22;32137;48.728;9.142;2023-12-20T06:32:21;6.60;99.90
46438;DHT22;32137;48.728;9.142;2023-12-20T06:34:48;6.40;99.90
46438;DHT22;32137;48.728;9.142;2023-12-20T06:37:14;6.40;99.90
46438;DHT22;32137;48.728;9.142;2023-12-20T06:39:40;6.40;99.90
46438;DHT22;32137;48.728;9.142;2023-12-20T06:42:06;6.80;99.90
46438;DHT22;32137;48.728;9.142;2023-12-20T06:44:31;6.80;99.90
46438;DHT22;32137;48.728;9.142;2023-12-20T06:46:57;6.70;99.90
46438;DHT22;32137;48.728;9.142;2023-12-20T06:49:22;6.80;99.90
46438;DHT22;32137;48.728;9.142;2023-12-20T06:51:48;6.30;99.90
46438;DHT22;32137;48.728;9.142;2023-12-20T06:54:13;6.40;99.90
46438;DHT22;32137;48.728;9.142;2023-12-20T06:56:39;6.60;99.90
46438;DHT22;32137;48.728;9.142;2023-12-20T06:59:07;6.80;99.90
46438;DHT22;32137;48.728;9.142;2023-12-20T07:01:33;6.40;99.90
46438;DHT22;32137;48.728;9.142;2023-12-20T07:03:59;6.70;99.90
46438;DHT22;32137;48.728;9.142;2023-12-20T07:06:24;6.50;99.90
46438;DHT22;32137;48.728;9.142;2023-12-20T07:08:51;6.50;99.90
46438;DHT22;32137;48.728;9.142;2023-12-20T07:11:17;6.70;99.90
46438;DHT22;32137;48.728;9.142;2023-12-20T07:13:42;6.40;99.90
46438;DHT22;32137;48.728;9.142;2023-12-20T07:16:08;6.50;99.90
46438;DHT22;32137;48.728;9.142;2023-12-20T07:18:33;6.50;99.90
46438;DHT22;32137;48.728;9.142;2023-12-20T07:20:59;6.50;99.90
46438;DHT22;32137;48.728;9.142;2023-12-20T07:23:24;6.90;99.90
46438;DHT22;32137;48.728;9.142;2023-12-20T07:25:51;6.50;99.90
46438;DHT22;32137;48.728;9.142;2023-12-20T07:28:16;7.00;99.90
46438;DHT22;32137;48.728;9.142;2023-12-20T07:30:42;6.90;99.90
46438;DHT22;32137;48.728;9.142;2023-12-20T07:33:07;6.70;99.90
46438;DHT22;32137;48.728;9.142;2023-12-20T07:35:34;6.90;99.90
46438;DHT22;32137;48.728;9.142;2023-12-20T07:37:59;6.80;99.90
46438;DHT22;32137;48.728;9.142;2023-12-20T07:40:25;7.00;99.90
46438;DHT22;32137;48.728;9.142;2023-12-20T07:42:50;6.50;99.90
46438;DHT22;32137;48.728;9.142;2023-12-20T07:45:16;6.50;99.90
46438;DHT22;32137;48.728;9.142;2023-12-20T07:47:41;6.50;99.90
46438;DHT22;32137;48.728;9.142;2023-12-20T07:50:07;6.80;99.90
46438;DHT22;32137;48.728;9.142;2023-12-20T07:52:32;6.50;99.90
46438;DHT22;32137;48.728;9.142;2023-12-20T07:54:58;6.80;99.90
46438;DHT22;32137;48.728;9.142;2023-12-20T07:57:23;6.80;99.90
46438;DHT22;32137;48.728;9.142;2023-12-20T07:59:49;6.40;99.90
46438;DHT22;32137;48.728;9.142;2023-12-20T08:02:14;6.50;99.90
46438;DHT22;32137;48.728;9.142;2023-12-20T08:04:40;6.60;99.90
46438;DHT22;32137;48.728;9.142;2023-12-20T08:07:06;6.40;99.90
46438;DHT22;32137;48.728;9.142;2023-12-20T08:09:32;6.50;99.90
46438;DHT22;32137;48.728;9.142;2023-12-20T08:11:59;6.20;99.90
46438;DHT22;32137;48.728;9.142;2023-12-20T08:14:25;6.40;99.90
46438;DHT22;32137;48.728;9.142;2023-12-20T08:16:50;6.40;99.90
46438;DHT22;32137;48.728;9.142;2023-12-20T08:19:16;6.20;99.90
46438;DHT22;32137;48.728;9.142;2023-12-20T08:21:42;6.20;99.90
46438;DHT22;32137;48.728;9.142;2023-12-20T08:24:07;6.60;99.90
46438;DHT22;32137;48.728;9.142;2023-12-20T08:26:33;6.20;99.90
46438;DHT22;32137;48.728;9.142;2023-12-20T08:28:58;6.60;99.90
46438;DHT22;32137;48.728;9.142;2023-12-20T08:31:24;6.30;99.90
46438;DHT22;32137;48.728;9.142;2023-12-20T08:33:49;6.70;99.90
46438;DHT22;32137;48.728;9.142;2023-12-20T08:36:15;6.40;99.90
46438;DHT22;32137;48.728;9.142;2023-12-20T08:38:42;6.60;99.90
46438;DHT22;32137;48.728;9.142;2023-12-20T08:41:08;6.60;99.90
46438;DHT22;32137;48.728;9.142;2023-12-20T08:43:34;6.20;99.90
46438;DHT22;32137;48.728;9.142;2023-12-20T08:46:00;6.60;99.90
46438;DHT22;32137;48.728;9.142;2023-12-20T08:48:26;6.20;99.90
46438;DHT22;32137;48.728;9.142;2023-12-20T08:50:51;6.20;99.90
46438;DHT22;32137;48.728;9.142;2023-12-20T08:53:18;6.20;99.90
46438;DHT22;32137;48.728;9.142;2023-12-20T08:55:44;6.50;99.90
46438;DHT22;32137;48.728;9.142;2023-12-20T08:58:09;6.10;99.90
46438;DHT22;32137;48.728;9.142;2023-12-20T09:00:35;6.10;99.90
46438;DHT22;32137;48.728;9.142;2023-12-20T09:03:01;6.20;99.90
46438;DHT22;32137;48.728;9.142;2023-12-20T09:05:26;5.90;99.90
46438;DHT22;32137;48.728;9.142;2023-12-20T09:07:52;5.80;99.90
46438;DHT22;32137;48.728;9.142;2023-12-20T09:10:17;6.10;99.90
46438;DHT22;32137;48.728;9.142;2023-12-20T09:12:56;5.70;99.90
46438;DHT22;32137;48.728;9.142;2023-12-20T09:15:25;5.70;99.90
46438;DHT22;32137;48.728;9.142;2023-12-20T09:17:51;5.70;99.90
46438;DHT22;32137;48.728;9.142;2023-12-20T09:20:16;5.90;99.90
46438;DHT22;32137;48.728;9.142;2023-12-20T09:22:42;5.60;99.90
46438;DHT22;32137;48.728;9.142;2023-12-20T09:25:08;5.50;99.90
46438;DHT22;32137;48.728;9.142;2023-12-20T09:27:33;5.80;99.90
46438;DHT22;32137;48.728;9.142;2023-12-20T09:29:59;5.50;99.90
46438;DHT22;32137;48.728;9.142;2023-12-20T09:32:24;5.80;99.90
46438;DHT22;32137;48.728;9.142;2023-12-20T09:34:49;5.40;99.90
46438;DHT22;32137;48.728;9.142;2023-12-20T09:37:15;5.50;99.90
46438;DHT22;32137;48.728;9.142;2023-12-20T09:39:40;5.60;99.90
46438;DHT22;32137;48.728;9.142;2023-12-20T09:42:06;5.50;99.90
46438;DHT22;32137;48.728;9.142;2023-12-20T09:44:32;5.50;99.90
46438;DHT22;32137;48.728;9.142;2023-12-20T09:47:02;5.50;99.90
46438;DHT22;32137;48.728;9.142;2023-12-20T09:49:27;5.80;99.90
46438;DHT22;32137;48.728;9.142;2023-12-20T09:51:53;5.50;99.90
46438;DHT22;32137;48.728;9.142;2023-12-20T09:54:19;5.40;99.90
46438;DHT22;32137;48.728;9.142;2023-12-20T09:56:45;5.80;99.90
46438;DHT22;32137;48.728;9.142;2023-12-20T09:59:11;5.40;99.90
46438;DHT22;32137;48.728;9.142;2023-12-20T10:01:37;5.40;99.90
46438;DHT22;32137;48.728;9.142;2023-12-20T10:04:05;5.80;99.90
46438;DHT22;32137;48.728;9.142;2023-12-20T10:06:33;5.80;99.90
46438;DHT22;32137;48.728;9.142;2023-12-20T10:08:59;5.30;99.90
46438;DHT22;32137;48.728;9.142;2023-12-20T10:11:24;5.60;99.90
46438;DHT22;32137;48.728;9.142;2023-12-20T10:13:50;5.90;99.90
46438;DHT22;32137;48.728;9.142;2023-12-20T10:16:16;5.70;99.90
46438;DHT22;32137;48.728;9.142;2023-12-20T10:18:41;6.00;99.90
46438;DHT22;32137;48.728;9.142;2023-12-20T10:21:07;5.60;99.90
46438;DHT22;32137;48.728;9.142;2023-12-20T10:23:35;6.20;99.90
46438;DHT22;32137;48.728;9.142;2023-12-20T10:26:01;6.20;99.90
46438;DHT22;32137;48.728;9.142;2023-12-20T10:28:26;6.20;99.90
46438;DHT22;32137;48.728;9.142;2023-12-20T10:30:55;6.00;99.90
46438;DHT22;32137;48.728;9.142;2023-12-20T10:33:24;6.10;99.90
46438;DHT22;32137;48.728;9.142;2023-12-20T10:35:49;6.10;99.90
46438;DHT22;32137;48.728;9.142;2023-12-20T10:38:15;6.20;99.90
46438;DHT22;32137;48.728;9.142;2023-12-20T10:40:40;6.10;99.90
46438;DHT22;32137;48.728;9.142;2023-12-20T10:43:06;5.80;99.90
46438;DHT22;32137;48.728;9.142;2023-12-20T10:45:33;5.80;99.90
46438;DHT22;32137;48.728;9.142;2023-12-20T10:47:59;6.30;99.90
46438;DHT22;32137;48.728;9.142;2023-12-20T10:50:26;5.90;99.90
46438;DHT22;32137;48.728;9.142;2023-12-20T10:52:52;5.90;99.90
46438;DHT22;32137;48.728;9.142;2023-12-20T10:55:21;6.20;99.90
46438;DHT22;32137;48.728;9.142;2023-12-20T10:57:46;6.00;99.90
46438;DHT22;32137;48.728;9.142;2023-12-20T11:00:16;6.10;99.90
46438;DHT22;32137;48.728;9.142;2023-12-20T11:02:43;6.00;99.90
46438;DHT22;32137;48.728;9.142;2023-12-20T11:07:55;6.00;99.90
46438;DHT22;32137;48.728;9.142;2023-12-20T11:10:28;6.00;99.90
46438;DHT22;32137;48.728;9.142;2023-12-20T11:12:57;6.10;99.90
46438;DHT22;32137;48.728;9.142;2023-12-20T11:15:24;6.00;99.90
46438;DHT22;32137;48.728;9.142;2023-12-20T11:17:57;6.40;99.90
46438;DHT22;32137;48.728;9.142;2023-12-20T11:20:35;6.50;99.90
46438;DHT22;32137;48.728;9.142;2023-12-20T11:23:01;6.10;99.90
46438;DHT22;32137;48.728;9.142;2023-12-20T11:25:27;6.40;99.90
46438;DHT22;32137;48.728;9.142;2023-12-20T11:28:09;6.00;99.90
46438;DHT22;32137;48.728;9.142;2023-12-20T11:30:41;6.10;99.90
46438;DHT22;32137;48.728;9.142;2023-12-20T11:33:07;6.30;99.90
46438;DHT22;32137;48.728;9.142;2023-12-20T11:35:33;6.30;99.90
46438;DHT22;32137;48.728;9.142;2023-12-20T11:38:00;6.30;99.90
46438;DHT22;32137;48.728;9.142;2023-12-20T11:40:26;5.90;99.90
46438;DHT22;32137;48.728;9.142;2023-12-20T11:42:52;5.90;99.90
46438;DHT22;32137;48.728;9.142;2023-12-20T11:45:21;6.30;99.90
46438;DHT22;32137;48.728;9.142;2023-12-20T11:47:49;5.90;99.90
46438;DHT22;32137;48.728;9.142;2023-12-20T11:50:21;6.30;99.90
46438;DHT22;32137;48.728;9.142;2023-12-20T11:52:47;6.00;99.90
46438;DHT22;32137;48.728;9.142;2023-12-20T11:55:13;6.00;99.90
46438;DHT22;32137;48.728;9.142;2023-12-20T11:57:39;5.60;99.90
46438;DHT22;32137;48.728;9.142;2023-12-20T12:00:04;5.70;99.90
46438;DHT22;32137;48.728;9.142;2023-12-20T12:02:31;5.50;99.90
46438;DHT22;32137;48.728;9.142;2023-12-20T12:04:57;5.20;99.90
46438;DHT22;32137;48.728;9.142;2023-12-20T12:07:24;5.30;99.90
46438;DHT22;32137;48.728;9.142;2023-12-20T12:09:49;5.80;99.90
46438;DHT22;32137;48.728;9.142;2023-12-20T12:12:15;5.90;99.90
46438;DHT22;32137;48.728;9.142;2023-12-20T12:14:40;5.70;99.90
46438;DHT22;32137;48.728;9.142;2023-12-20T12:17:12;5.70;99.90
46438;DHT22;32137;48.728;9.142;2023-12-20T12:19:39;5.70;99.90
46438;DHT22;32137;48.728;9.142;2023-12-20T12:22:05;5.90;99.90
46438;DHT22;32137;48.728;9.142;2023-12-20T12:24:36;5.80;99.90
46438;DHT22;32137;48.728;9.142;2023-12-20T12:27:02;6.10;99.90
46438;DHT22;32137;48.728;9.142;2023-12-20T12:29:28;6.10;99.90
46438;DHT22;32137;48.728;9.142;2023-12-20T12:31:54;5.90;99.90
46438;DHT22;32137;48.728;9.142;2023-12-20T12:34:20;6.20;99.90
46438;DHT22;32137;48.728;9.142;2023-12-20T12:36:45;6.20;99.90
46438;DHT22;32137;48.728;9.142;2023-12-20T12:39:17;6.30;99.90
46438;DHT22;32137;48.728;9.142;2023-12-20T12:41:43;6.20;99.90
46438;DHT22;32137;48.728;9.142;2023-12-20T12:44:08;6.20;99.90
46438;DHT22;32137;48.728;9.142;2023-12-20T12:46:34;6.30;99.90
46438;DHT22;32137;48.728;9.142;2023-12-20T12:48:59;6.30;99.90
46438;DHT22;32137;48.728;9.142;2023-12-20T12:51:25;6.20;99.90
46438;DHT22;32137;48.728;9.142;2023-12-20T12:53:50;6.10;99.90
46438;DHT22;32137;48.728;9.142;2023-12-20T12:56:16;6.10;99.90
46438;DHT22;32137;48.728;9.142;2023-12-20T12:58:42;6.40;99.90
46438;DHT22;32137;48.728;9.142;2023-12-20T13:01:07;6.00;99.90
46438;DHT22;32137;48.728;9.142;2023-12-20T13:03:33;5.90;99.90
46438;DHT22;32137;48.728;9.142;2023-12-20T13:05:59;6.00;99.90
46438;DHT22;32137;48.728;9.142;2023-12-20T13:08:25;6.20;99.90
46438;DHT22;32137;48.728;9.142;2023-12-20T13:10:50;6.10;99.90
46438;DHT22;32137;48.728;9.142;2023-12-20T13:13:16;6.10;99.90
46438;DHT22;32137;48.728;9.142;2023-12-20T13:15:42;5.80;99.90
46438;DHT22;32137;48.728;9.142;2023-12-20T13:18:07;6.20;99.90
46438;DHT22;32137;48.728;9.142;2023-12-20T13:20:33;6.00;99.90
46438;DHT22;32137;48.728;9.142;2023-12-20T13:22:58;6.20;99.90
46438;DHT22;32137;48.728;9.142;2023-12-20T13:25:24;5.90;99.90
46438;DHT22;32137;48.728;9.142;2023-12-20T13:27:50;6.10;99.90
46438;DHT22;32137;48.728;9.142;2023-12-20T13:30:18;6.20;99.90
46438;DHT22;32137;48.728;9.142;2023-12-20T13:32:44;6.10;99.90
46438;DHT22;32137;48.728;9.142;2023-12-20T13:35:09;5.80;99.90
46438;DHT22;32137;48.728;9.142;2023-12-20T13:37:34;5.80;99.90
46438;DHT22;32137;48.728;9.142;2023-12-20T13:40:00;5.90;99.90
46438;DHT22;32137;48.728;9.142;2023-12-20T13:42:26;6.20;99.90
46438;DHT22;32137;48.728;9.142;2023-12-20T13:44:52;6.20;99.90
46438;DHT22;32137;48.728;9.142;2023-12-20T13:47:18;6.30;99.90
46438;DHT22;32137;48.728;9.142;2023-12-20T13:49:44;6.20;99.90
46438;DHT22;32137;48.728;9.142;2023-12-20T13:52:10;6.20;99.90
46438;DHT22;32137;48.728;9.142;2023-12-20T13:54:36;6.20;99.90
46438;DHT22;32137;48.728;9.142;2023-12-20T13:57:02;6.20;99.90
46438;DHT22;32137;48.728;9.142;2023-12-20T13:59:28;6.30;99.90
46438;DHT22;32137;48.728;9.142;2023-12-20T14:01:54;6.30;99.90
46438;DHT22;32137;48.728;9.142;2023-12-20T14:04:19;6.00;99.90
46438;DHT22;32137;48.728;9.142;2023-12-20T14:06:45;6.10;99.90
46438;DHT22;32137;48.728;9.142;2023-12-20T14:09:10;6.10;99.90
46438;DHT22;32137;48.728;9.142;2023-12-20T14:11:37;5.70;99.90
46438;DHT22;32137;48.728;9.142;2023-12-20T14:14:06;6.00;99.90
46438;DHT22;32137;48.728;9.142;2023-12-20T14:16:33;6.00;99.90
46438;DHT22;32137;48.728;9.142;2023-12-20T14:18:58;5.60;99.90
46438;DHT22;32137;48.728;9.142;2023-12-20T14:21:24;5.60;99.90
46438;DHT22;32137;48.728;9.142;2023-12-20T14:23:49;5.70;99.90
46438;DHT22;32137;48.728;9.142;2023-12-20T14:26:15;5.70;99.90
46438;DHT22;32137;48.728;9.142;2023-12-20T14:28:41;5.60;99.90
46438;DHT22;32137;48.728;9.142;2023-12-20T14:31:07;5.70;99.90
46438;DHT22;32137;48.728;9.142;2023-12-20T14:33:33;5.70;99.90
46438;DHT22;32137;48.728;9.142;2023-12-20T14:35:59;5.80;99.90
46438;DHT22;32137;48.728;9.142;2023-12-20T14:38:24;5.50;99.90
46438;DHT22;32137;48.728;9.142;2023-12-20T14:40:50;5.60;99.90
46438;DHT22;32137;48.728;9.142;2023-12-20T14:43:16;5.70;99.90
46438;DHT22;32137;48.728;9.142;2023-12-20T14:45:42;5.70;99.90
46438;DHT22;32137;48.728;9.142;2023-12-20T14:48:07;5.80;99.90
46438;DHT22;32137;48.728;9.142;2023-12-20T14:50:33;5.80;99.90
46438;DHT22;32137;48.728;9.142;2023-12-20T14:52:58;5.60;99.90
46438;DHT22;32137;48.728;9.142;2023-12-20T14:55:25;5.70;99.90
46438;DHT22;32137;48.728;9.142;2023-12-20T14:57:52;5.60;99.90
46438;DHT22;32137;48.728;9.142;2023-12-20T15:00:18;5.60;99.90
46438;DHT22;32137;48.728;9.142;2023-12-20T15:02:45;5.60;99.90
46438;DHT22;32137;48.728;9.142;2023-12-20T15:05:10;5.50;99.90
46438;DHT22;32137;48.728;9.142;2023-12-20T15:07:36;5.60;99.90
46438;DHT22;32137;48.728;9.142;2023-12-20T15:10:02;5.40;99.90
46438;DHT22;32137;48.728;9.142;2023-12-20T15:12:27;5.40;99.90
46438;DHT22;32137;48.728;9.142;2023-12-20T15:14:53;5.40;99.90
46438;DHT22;32137;48.728;9.142;2023-12-20T15:17:19;5.60;99.90
46438;DHT22;32137;48.728;9.142;2023-12-20T15:19:44;5.50;99.90
46438;DHT22;32137;48.728;9.142;2023-12-20T15:22:10;5.40;99.90
46438;DHT22;32137;48.728;9.142;2023-12-20T15:24:38;5.50;99.90
46438;DHT22;32137;48.728;9.142;2023-12-20T15:27:05;5.50;99.90
46438;DHT22;32137;48.728;9.142;2023-12-20T15:29:31;5.40;99.90
46438;DHT22;32137;48.728;9.142;2023-12-20T15:31:56;5.50;99.90
46438;DHT22;32137;48.728;9.142;2023-12-20T15:34:22;5.60;99.90
46438;DHT22;32137;48.728;9.142;2023-12-20T15:36:47;5.50;99.90
46438;DHT22;32137;48.728;9.142;2023-12-20T15:39:13;5.50;99.90